createdAt,value
2019-05-07T00:00:44.595Z,1014.62
2019-05-07T00:01:51.542Z,1014.63
2019-05-07T00:02:52.900Z,1014.66
2019-05-07T00:03:57.109Z,1014.68
2019-05-07T00:05:02.705Z,1014.68
2019-05-07T00:06:05.382Z,1014.68
2019-05-07T00:07:09.616Z,1014.69
2019-05-07T00:08:13.753Z,1014.71
2019-05-07T00:09:17.927Z,1014.70
2019-05-07T00:10:24.689Z,1014.71
2019-05-07T00:11:26.343Z,1014.70
2019-05-07T00:12:32.322Z,1014.68
2019-05-07T00:13:34.725Z,1014.70
2019-05-07T00:14:38.911Z,1014.68
2019-05-07T00:15:43.120Z,1014.68
2019-05-07T00:16:47.267Z,1014.67
2019-05-07T00:17:52.268Z,1014.65
2019-05-07T00:18:55.665Z,1014.63
2019-05-07T00:20:02.170Z,1014.65
2019-05-07T00:21:03.993Z,1014.63
2019-05-07T00:22:08.278Z,1014.61
2019-05-07T00:23:12.536Z,1014.60
2019-05-07T00:24:16.618Z,1014.62
2019-05-07T00:25:22.831Z,1014.63
2019-05-07T00:26:24.985Z,1014.60
2019-05-07T00:27:29.130Z,1014.61
2019-05-07T00:28:33.366Z,1014.59
2019-05-07T00:29:37.490Z,1014.58
2019-05-07T00:30:42.520Z,1014.58
2019-05-07T00:31:45.857Z,1014.58
2019-05-07T00:32:50.067Z,1014.58
2019-05-07T00:33:54.242Z,1014.59
2019-05-07T00:34:58.373Z,1014.61
2019-05-07T00:36:02.713Z,1014.61
2019-05-07T00:37:07.201Z,1014.57
2019-05-07T00:38:12.904Z,1014.61
2019-05-07T00:39:15.019Z,1014.61
2019-05-07T00:40:19.254Z,1014.61
2019-05-07T00:41:23.540Z,1014.63
2019-05-07T00:42:27.668Z,1014.63
2019-05-07T00:43:32.299Z,1014.64
2019-05-07T00:44:36.031Z,1014.63
2019-05-07T00:45:42.120Z,1014.65
2019-05-07T00:46:44.254Z,1014.63
2019-05-07T00:47:48.571Z,1014.63
2019-05-07T00:48:52.848Z,1014.64
2019-05-07T00:49:56.986Z,1014.65
2019-05-07T00:51:02.208Z,1014.67
2019-05-07T00:52:05.234Z,1014.68
2019-05-07T00:53:09.396Z,1014.69
2019-05-07T00:54:13.562Z,1014.71
2019-05-07T00:55:17.704Z,1014.70
2019-05-07T00:56:22.391Z,1014.70
2019-05-07T00:57:26.071Z,1014.69
2019-05-07T00:58:32.109Z,1014.67
2019-05-07T00:59:34.407Z,1014.70
2019-05-07T01:00:38.679Z,1014.69
2019-05-07T01:01:43.349Z,1014.67
2019-05-07T01:02:46.924Z,1014.69
2019-05-07T01:03:53.288Z,1014.70
2019-05-07T01:04:55.332Z,1014.72
2019-05-07T01:05:59.447Z,1014.73
2019-05-07T01:07:03.584Z,1014.72
2019-05-07T01:08:07.767Z,1014.71
2019-05-07T01:09:12.431Z,1014.73
2019-05-07T01:10:16.195Z,1014.72
2019-05-07T01:11:22.480Z,1014.72
2019-05-07T01:12:24.448Z,1014.72
2019-05-07T01:13:28.579Z,1014.71
2019-05-07T01:14:32.766Z,1014.74
2019-05-07T01:15:36.959Z,1014.73
2019-05-07T01:16:42.040Z,1014.73
2019-05-07T01:17:45.257Z,1014.72
2019-05-07T01:18:49.457Z,1014.72
2019-05-07T01:19:53.666Z,1014.73
2019-05-07T01:20:57.857Z,1014.70
2019-05-07T01:22:03.231Z,1014.71
2019-05-07T01:23:06.332Z,1014.70
2019-05-07T01:24:12.320Z,1014.69
2019-05-07T01:25:14.671Z,1014.70
2019-05-07T01:26:18.858Z,1014.70
2019-05-07T01:27:23.024Z,1014.69
2019-05-07T01:28:27.156Z,1014.68
2019-05-07T01:29:32.855Z,1014.68
2019-05-07T01:30:35.494Z,1014.67
2019-05-07T01:31:39.676Z,1014.70
2019-05-07T01:32:43.836Z,1014.70
2019-05-07T01:33:48.004Z,1014.69
2019-05-07T01:34:52.545Z,1014.68
2019-05-07T01:35:56.377Z,1014.67
2019-05-07T01:37:02.616Z,1014.70
2019-05-07T01:38:04.764Z,1014.70
2019-05-07T01:39:08.876Z,1014.72
2019-05-07T01:40:13.043Z,1014.71
2019-05-07T01:41:17.192Z,1014.70
2019-05-07T01:42:22.185Z,1014.70
2019-05-07T01:43:25.543Z,1014.70
2019-05-07T01:44:29.735Z,1014.70
2019-05-07T01:45:45.809Z,1014.69
2019-05-07T01:46:38.226Z,1014.69
2019-05-07T01:47:42.596Z,1014.70
2019-05-07T01:48:46.468Z,1014.68
2019-05-07T01:49:52.404Z,1014.69
2019-05-07T01:50:54.820Z,1014.71
2019-05-07T01:51:59.026Z,1014.73
2019-05-07T01:53:03.910Z,1014.71
2019-05-07T01:54:07.365Z,1014.72
2019-05-07T01:55:12.935Z,1014.69
2019-05-07T01:56:15.800Z,1014.70
2019-05-07T01:57:20.042Z,1014.72
2019-05-07T01:58:24.128Z,1014.73
2019-05-07T01:59:28.327Z,1014.73
2019-05-07T02:00:32.696Z,1014.74
2019-05-07T02:01:36.663Z,1014.72
2019-05-07T02:02:42.570Z,1014.72
2019-05-07T02:03:44.982Z,1014.75
2019-05-07T02:04:49.169Z,1014.74
2019-05-07T02:05:53.326Z,1014.74
2019-05-07T02:06:57.481Z,1014.75
2019-05-07T02:08:02.960Z,1014.75
2019-05-07T02:09:05.702Z,1014.73
2019-05-07T02:10:11.853Z,1014.72
2019-05-07T02:11:14.098Z,1014.73
2019-05-07T02:12:18.354Z,1014.75
2019-05-07T02:13:22.451Z,1014.77
2019-05-07T02:14:26.624Z,1014.75
2019-05-07T02:15:32.274Z,1014.75
2019-05-07T02:16:34.970Z,1014.74
2019-05-07T02:17:39.170Z,1014.73
2019-05-07T02:18:43.338Z,1014.77
2019-05-07T02:19:47.450Z,1014.81
2019-05-07T02:20:52.136Z,1014.80
2019-05-07T02:21:55.743Z,1014.85
2019-05-07T02:23:00.009Z,1014.86
2019-05-07T02:24:04.130Z,1014.85
2019-05-07T02:25:08.319Z,1014.85
2019-05-07T02:26:13.356Z,1014.83
2019-05-07T02:27:16.583Z,1014.84
2019-05-07T02:28:22.268Z,1014.85
2019-05-07T02:29:24.924Z,1014.86
2019-05-07T02:30:29.093Z,1014.87
2019-05-07T02:31:33.947Z,1014.89
2019-05-07T02:32:37.562Z,1014.88
2019-05-07T02:33:43.359Z,1014.89
2019-05-07T02:34:45.854Z,1014.90
2019-05-07T02:35:53.247Z,1014.89
2019-05-07T02:36:54.219Z,1014.89
2019-05-07T02:37:58.374Z,1014.88
2019-05-07T02:39:03.768Z,1014.87
2019-05-07T02:40:06.691Z,1014.88
2019-05-07T02:41:13.977Z,1014.86
2019-05-07T02:42:14.992Z,1014.88
2019-05-07T02:43:19.177Z,1014.87
2019-05-07T02:44:23.459Z,1014.91
2019-05-07T02:45:27.518Z,1014.91
2019-05-07T02:46:35.772Z,1014.93
2019-05-07T02:47:35.962Z,1014.91
2019-05-07T02:48:42.642Z,1014.90
2019-05-07T02:49:44.177Z,1014.90
2019-05-07T02:50:48.330Z,1014.89
2019-05-07T02:51:53.163Z,1014.88
2019-05-07T02:52:56.689Z,1014.87
2019-05-07T02:54:03.674Z,1014.86
2019-05-07T02:55:05.018Z,1014.88
2019-05-07T02:56:09.191Z,1014.88
2019-05-07T02:57:16.895Z,1014.88
2019-05-07T02:58:17.445Z,1014.87
2019-05-07T02:59:23.368Z,1014.84
2019-05-07T03:00:25.711Z,1014.83
2019-05-07T03:01:29.872Z,1014.82
2019-05-07T03:02:34.089Z,1014.81
2019-05-07T03:03:38.188Z,1014.80
2019-05-07T03:04:43.625Z,1014.79
2019-05-07T03:05:46.557Z,1014.82
2019-05-07T03:06:54.034Z,1014.82
2019-05-07T03:07:54.895Z,1014.82
2019-05-07T03:08:59.024Z,1014.80
2019-05-07T03:10:03.837Z,1014.79
2019-05-07T03:11:07.370Z,1014.78
2019-05-07T03:12:13.159Z,1014.80
2019-05-07T03:13:15.689Z,1014.81
2019-05-07T03:14:19.865Z,1014.84
2019-05-07T03:15:24.390Z,1014.81
2019-05-07T03:16:40.116Z,1014.82
2019-05-07T03:17:33.378Z,1014.84
2019-05-07T03:18:36.630Z,1014.83
2019-05-07T03:19:43.044Z,1014.84
2019-05-07T03:20:44.864Z,1014.83
2019-05-07T03:21:49.018Z,1014.83
2019-05-07T03:22:53.780Z,1014.84
2019-05-07T03:23:57.343Z,1014.84
2019-05-07T03:25:03.426Z,1014.82
2019-05-07T03:26:05.643Z,1014.86
2019-05-07T03:27:09.820Z,1014.87
2019-05-07T03:28:13.964Z,1014.86
2019-05-07T03:29:18.096Z,1014.85
2019-05-07T03:30:26.038Z,1014.86
2019-05-07T03:31:26.775Z,1014.85
2019-05-07T03:32:36.881Z,1014.86
2019-05-07T03:33:36.739Z,1014.86
2019-05-07T03:34:38.976Z,1014.87
2019-05-07T03:35:46.548Z,1014.89
2019-05-07T03:36:48.778Z,1014.91
2019-05-07T03:37:54.384Z,1014.90
2019-05-07T03:38:55.500Z,1014.90
2019-05-07T03:39:59.650Z,1014.90
2019-05-07T03:41:04.006Z,1014.89
2019-05-07T03:42:07.960Z,1014.91
2019-05-07T03:43:13.846Z,1014.88
2019-05-07T03:44:16.281Z,1014.93
2019-05-07T03:45:23.090Z,1014.93
2019-05-07T03:46:24.615Z,1014.94
2019-05-07T03:47:28.800Z,1014.96
2019-05-07T03:48:33.386Z,1014.96
2019-05-07T03:49:37.094Z,1014.95
2019-05-07T03:50:43.111Z,1014.96
2019-05-07T03:51:45.521Z,1014.96
2019-05-07T03:52:49.709Z,1014.98
2019-05-07T03:53:53.886Z,1014.98
2019-05-07T03:54:57.834Z,1015.00
2019-05-07T03:56:04.098Z,1015.00
2019-05-07T03:57:11.049Z,1014.95
2019-05-07T03:58:14.221Z,1014.95
2019-05-07T03:59:14.596Z,1014.98
2019-05-07T04:00:18.780Z,1014.97
2019-05-07T04:01:24.051Z,1014.98
2019-05-07T04:02:27.097Z,1014.99
2019-05-07T04:03:34.204Z,1014.99
2019-05-07T04:04:35.374Z,1015.01
2019-05-07T04:05:39.531Z,1015.02
2019-05-07T04:06:43.705Z,1015.00
2019-05-07T04:07:47.894Z,1015.00
2019-05-07T04:08:53.228Z,1015.02
2019-05-07T04:09:56.252Z,1015.03
2019-05-07T04:11:03.467Z,1015.02
2019-05-07T04:12:04.583Z,1015.02
2019-05-07T04:13:08.765Z,1015.00
2019-05-07T04:14:13.617Z,1015.03
2019-05-07T04:15:19.552Z,1015.04
2019-05-07T04:16:24.039Z,1015.07
2019-05-07T04:17:27.144Z,1015.04
2019-05-07T04:18:32.647Z,1015.06
2019-05-07T04:19:33.682Z,1015.05
2019-05-07T04:20:37.874Z,1015.05
2019-05-07T04:21:43.485Z,1015.07
2019-05-07T04:22:46.201Z,1015.07
2019-05-07T04:23:50.355Z,1015.08
2019-05-07T04:24:54.503Z,1015.08
2019-05-07T04:25:58.678Z,1015.08
2019-05-07T04:27:03.692Z,1015.10
2019-05-07T04:28:07.098Z,1015.11
2019-05-07T04:29:13.207Z,1015.10
2019-05-07T04:30:15.430Z,1015.09
2019-05-07T04:31:22.751Z,1015.09
2019-05-07T04:32:23.757Z,1015.07
2019-05-07T04:33:27.942Z,1015.06
2019-05-07T04:34:33.693Z,1015.08
2019-05-07T04:35:36.358Z,1015.12
2019-05-07T04:36:43.261Z,1015.12
2019-05-07T04:37:44.706Z,1015.13
2019-05-07T04:38:48.752Z,1015.13
2019-05-07T04:39:53.693Z,1015.15
2019-05-07T04:40:57.186Z,1015.13
2019-05-07T04:42:03.573Z,1015.13
2019-05-07T04:43:05.500Z,1015.10
2019-05-07T04:44:09.791Z,1015.12
2019-05-07T04:45:13.955Z,1015.12
2019-05-07T04:46:18.123Z,1015.12
2019-05-07T04:47:37.017Z,1015.11
2019-05-07T04:48:26.393Z,1015.10
2019-05-07T04:49:33.170Z,1015.13
2019-05-07T04:50:42.961Z,1015.10
2019-05-07T04:51:38.977Z,1015.12
2019-05-07T04:52:43.864Z,1015.10
2019-05-07T04:53:47.351Z,1015.11
2019-05-07T04:54:52.768Z,1015.08
2019-05-07T04:55:55.819Z,1015.11
2019-05-07T04:57:00.002Z,1015.10
2019-05-07T04:58:08.590Z,1015.12
2019-05-07T04:59:08.286Z,1015.13
2019-05-07T05:00:13.486Z,1015.14
2019-05-07T05:01:16.786Z,1015.12
2019-05-07T05:02:23.051Z,1015.13
2019-05-07T05:03:25.188Z,1015.13
2019-05-07T05:04:34.006Z,1015.13
2019-05-07T05:05:33.609Z,1015.16
2019-05-07T05:06:37.699Z,1015.16
2019-05-07T05:07:43.065Z,1015.20
2019-05-07T05:08:46.136Z,1015.19
2019-05-07T05:09:52.989Z,1015.20
2019-05-07T05:10:54.455Z,1015.21
2019-05-07T05:11:58.645Z,1015.21
2019-05-07T05:13:03.369Z,1015.22
2019-05-07T05:14:08.047Z,1015.22
2019-05-07T05:15:12.629Z,1015.24
2019-05-07T05:16:15.443Z,1015.24
2019-05-07T05:17:19.610Z,1015.24
2019-05-07T05:18:23.894Z,1015.26
2019-05-07T05:19:28.019Z,1015.25
2019-05-07T05:20:33.621Z,1015.25
2019-05-07T05:21:36.407Z,1015.26
2019-05-07T05:22:42.495Z,1015.26
2019-05-07T05:23:44.701Z,1015.26
2019-05-07T05:24:48.990Z,1015.21
2019-05-07T05:25:53.142Z,1015.23
2019-05-07T05:26:57.336Z,1015.24
2019-05-07T05:28:02.098Z,1015.21
2019-05-07T05:29:05.861Z,1015.20
2019-05-07T05:30:09.987Z,1015.20
2019-05-07T05:31:14.173Z,1015.21
2019-05-07T05:32:18.497Z,1015.22
2019-05-07T05:33:23.490Z,1015.22
2019-05-07T05:34:26.858Z,1015.18
2019-05-07T05:35:32.108Z,1015.13
2019-05-07T05:36:35.334Z,1015.15
2019-05-07T05:37:39.513Z,1015.14
2019-05-07T05:38:43.728Z,1015.10
2019-05-07T05:40:02.516Z,1015.08
2019-05-07T05:40:52.357Z,1015.08
2019-05-07T05:41:56.624Z,1015.07
2019-05-07T05:43:01.923Z,1015.04
2019-05-07T05:44:05.099Z,1014.97
2019-05-07T05:45:09.479Z,1014.93
2019-05-07T05:46:13.848Z,1014.89
2019-05-07T05:47:18.161Z,1014.91
2019-05-07T05:48:22.578Z,1014.90
2019-05-07T05:49:26.698Z,1014.89
2019-05-07T05:50:33.153Z,1014.92
2019-05-07T05:51:35.380Z,1014.92
2019-05-07T05:52:39.593Z,1014.90
2019-05-07T05:53:43.852Z,1014.91
2019-05-07T05:54:48.102Z,1014.92
2019-05-07T05:55:52.855Z,1014.88
2019-05-07T05:56:56.641Z,1014.88
2019-05-07T05:58:02.679Z,1014.90
2019-05-07T05:59:05.207Z,1014.90
2019-05-07T06:00:09.474Z,1014.90
2019-05-07T06:01:13.705Z,1014.88
2019-05-07T06:02:18.060Z,1014.87
2019-05-07T06:03:22.782Z,1014.90
2019-05-07T06:04:26.433Z,1014.92
2019-05-07T06:05:34.239Z,1014.94
2019-05-07T06:06:34.983Z,1014.94
2019-05-07T06:07:39.297Z,1014.92
2019-05-07T06:08:43.569Z,1014.96
2019-05-07T06:09:47.657Z,1014.98
2019-05-07T06:10:52.008Z,1015.00
2019-05-07T06:11:59.171Z,1014.99
2019-05-07T06:13:02.523Z,1015.00
2019-05-07T06:14:06.762Z,1015.01
2019-05-07T06:15:12.651Z,1015.01
2019-05-07T06:16:15.282Z,1015.02
2019-05-07T06:17:19.505Z,1015.01
2019-05-07T06:18:24.044Z,1015.02
2019-05-07T06:19:28.000Z,1015.02
2019-05-07T06:20:32.271Z,1015.02
2019-05-07T06:21:36.634Z,1015.03
2019-05-07T06:22:42.438Z,1015.06
2019-05-07T06:23:45.062Z,1015.09
2019-05-07T06:24:49.260Z,1015.05
2019-05-07T06:25:53.504Z,1015.07
2019-05-07T06:26:57.741Z,1015.06
2019-05-07T06:28:02.039Z,1015.06
2019-05-07T06:29:06.249Z,1015.08
2019-05-07T06:30:12.090Z,1015.07
2019-05-07T06:31:14.623Z,1015.09
2019-05-07T06:32:18.922Z,1015.11
2019-05-07T06:33:23.317Z,1015.08
2019-05-07T06:34:27.539Z,1015.14
2019-05-07T06:35:32.442Z,1015.17
2019-05-07T06:36:35.984Z,1015.18
2019-05-07T06:37:40.284Z,1015.18
2019-05-07T06:38:44.517Z,1015.17
2019-05-07T06:39:48.779Z,1015.13
2019-05-07T06:40:53.022Z,1015.20
2019-05-07T06:41:57.249Z,1015.19
2019-05-07T06:43:03.158Z,1015.17
2019-05-07T06:44:05.759Z,1015.21
2019-05-07T06:45:12.247Z,1015.19
2019-05-07T06:46:14.273Z,1015.20
2019-05-07T06:47:18.537Z,1015.20
2019-05-07T06:48:38.080Z,1015.19
2019-05-07T06:49:27.136Z,1015.18
2019-05-07T06:50:32.674Z,1015.23
2019-05-07T06:51:35.545Z,1015.21
2019-05-07T06:52:39.810Z,1015.22
2019-05-07T06:53:44.131Z,1015.25
2019-05-07T06:54:48.430Z,1015.27
2019-05-07T06:55:52.740Z,1015.24
2019-05-07T06:56:56.947Z,1015.25
2019-05-07T06:58:02.606Z,1015.24
2019-05-07T06:59:05.488Z,1015.25
2019-05-07T07:00:11.912Z,1015.24
2019-05-07T07:01:14.029Z,1015.25
2019-05-07T07:02:18.216Z,1015.25
2019-05-07T07:03:22.410Z,1015.26
2019-05-07T07:04:26.764Z,1015.30
2019-05-07T07:05:33.025Z,1015.26
2019-05-07T07:06:35.241Z,1015.21
2019-05-07T07:07:42.003Z,1015.23
2019-05-07T07:08:43.889Z,1015.25
2019-05-07T07:09:48.058Z,1015.24
2019-05-07T07:10:52.358Z,1015.22
2019-05-07T07:11:56.534Z,1015.23
2019-05-07T07:13:02.414Z,1015.23
2019-05-07T07:14:05.120Z,1015.22
2019-05-07T07:15:09.346Z,1015.23
2019-05-07T07:16:13.589Z,1015.28
2019-05-07T07:17:17.928Z,1015.22
2019-05-07T07:18:23.058Z,1015.22
2019-05-07T07:19:26.383Z,1015.28
2019-05-07T07:20:32.612Z,1015.27
2019-05-07T07:21:34.998Z,1015.28
2019-05-07T07:22:39.177Z,1015.24
2019-05-07T07:23:43.532Z,1015.24
2019-05-07T07:24:47.752Z,1015.19
2019-05-07T07:25:52.304Z,1015.17
2019-05-07T07:26:56.224Z,1015.15
2019-05-07T07:28:02.618Z,1015.14
2019-05-07T07:29:04.769Z,1015.17
2019-05-07T07:30:09.020Z,1015.20
2019-05-07T07:31:13.281Z,1015.16
2019-05-07T07:32:17.592Z,1015.15
2019-05-07T07:33:22.494Z,1015.16
2019-05-07T07:34:26.163Z,1015.16
2019-05-07T07:35:32.184Z,1015.16
2019-05-07T07:36:34.723Z,1015.16
2019-05-07T07:37:38.970Z,1015.13
2019-05-07T07:38:43.122Z,1015.12
2019-05-07T07:39:47.451Z,1015.11
2019-05-07T07:40:52.763Z,1015.11
2019-05-07T07:41:55.953Z,1015.11
2019-05-07T07:43:03.080Z,1015.14
2019-05-07T07:44:04.500Z,1015.13
2019-05-07T07:45:08.766Z,1015.09
2019-05-07T07:46:16.201Z,1015.08
2019-05-07T07:47:17.283Z,1015.08
2019-05-07T07:48:24.107Z,1015.05
2019-05-07T07:49:25.950Z,1015.08
2019-05-07T07:50:30.098Z,1015.08
2019-05-07T07:51:41.455Z,1015.08
2019-05-07T07:52:38.702Z,1015.07
2019-05-07T07:53:43.121Z,1015.09
2019-05-07T07:54:47.412Z,1015.11
2019-05-07T07:55:52.925Z,1015.12
2019-05-07T07:56:56.660Z,1015.12
2019-05-07T07:58:02.535Z,1015.16
2019-05-07T07:59:04.423Z,1015.17
2019-05-07T08:00:08.755Z,1015.16
2019-05-07T08:01:12.968Z,1015.14
2019-05-07T08:02:17.138Z,1015.14
2019-05-07T08:03:22.585Z,1015.13
2019-05-07T08:04:25.832Z,1015.16
2019-05-07T08:05:32.417Z,1015.11
2019-05-07T08:06:34.326Z,1015.15
2019-05-07T08:07:38.492Z,1015.11
2019-05-07T08:08:42.797Z,1015.15
2019-05-07T08:09:47.120Z,1015.12
2019-05-07T08:10:51.998Z,1015.11
2019-05-07T08:11:55.592Z,1015.14
2019-05-07T08:13:01.877Z,1015.13
2019-05-07T08:14:04.212Z,1015.08
2019-05-07T08:15:17.351Z,1015.09
2019-05-07T08:16:13.039Z,1015.09
2019-05-07T08:17:17.050Z,1015.02
2019-05-07T08:18:22.244Z,1015.03
2019-05-07T08:19:25.676Z,1015.08
2019-05-07T08:20:29.907Z,1015.07
2019-05-07T08:21:34.253Z,1015.12
2019-05-07T08:22:38.571Z,1015.11
2019-05-07T08:23:42.810Z,1015.10
2019-05-07T08:24:46.962Z,1015.10
2019-05-07T08:25:52.472Z,1015.07
2019-05-07T08:26:55.488Z,1015.08
2019-05-07T08:27:59.844Z,1015.14
2019-05-07T08:29:04.150Z,1015.13
2019-05-07T08:30:08.402Z,1015.12
2019-05-07T08:31:12.797Z,1015.10
2019-05-07T08:32:16.957Z,1015.07
2019-05-07T08:33:22.434Z,1015.06
2019-05-07T08:34:25.529Z,1015.01
2019-05-07T08:35:29.954Z,1015.05
2019-05-07T08:36:34.092Z,1015.02
2019-05-07T08:37:38.401Z,1015.03
2019-05-07T08:38:42.782Z,1015.06
2019-05-07T08:39:47.001Z,1015.07
2019-05-07T08:40:52.077Z,1015.02
2019-05-07T08:41:55.543Z,1015.08
2019-05-07T08:42:59.904Z,1015.06
2019-05-07T08:44:11.740Z,1015.06
2019-05-07T08:45:08.412Z,1014.99
2019-05-07T08:46:12.678Z,1015.01
2019-05-07T08:47:16.971Z,1015.04
2019-05-07T08:48:21.706Z,1015.05
2019-05-07T08:49:35.873Z,1015.04
2019-05-07T08:50:29.761Z,1015.05
2019-05-07T08:51:33.991Z,1015.05
2019-05-07T08:52:38.234Z,1015.02
2019-05-07T08:53:42.606Z,1015.00
2019-05-07T08:54:46.870Z,1014.98
2019-05-07T08:55:52.623Z,1015.01
2019-05-07T08:56:55.353Z,1014.96
2019-05-07T08:58:02.071Z,1014.92
2019-05-07T08:59:04.018Z,1014.93
2019-05-07T09:00:08.257Z,1014.90
2019-05-07T09:01:12.553Z,1014.85
2019-05-07T09:02:16.860Z,1014.87
2019-05-07T09:03:22.961Z,1014.94
2019-05-07T09:04:25.422Z,1014.89
2019-05-07T09:05:29.761Z,1014.87
2019-05-07T09:06:34.100Z,1014.86
2019-05-07T09:07:38.472Z,1014.91
2019-05-07T09:08:43.639Z,1014.91
2019-05-07T09:09:46.964Z,1014.88
2019-05-07T09:10:52.509Z,1014.86
2019-05-07T09:11:55.748Z,1014.88
2019-05-07T09:12:59.925Z,1014.97
2019-05-07T09:14:04.210Z,1014.96
2019-05-07T09:15:08.433Z,1014.96
2019-05-07T09:16:13.112Z,1015.02
2019-05-07T09:17:16.982Z,1015.02
2019-05-07T09:18:22.934Z,1015.03
2019-05-07T09:19:25.544Z,1015.00
2019-05-07T09:20:31.978Z,1014.99
2019-05-07T09:21:34.172Z,1015.01
2019-05-07T09:22:38.377Z,1015.04
2019-05-07T09:23:42.661Z,1015.02
2019-05-07T09:24:46.916Z,1015.00
2019-05-07T09:25:52.267Z,1014.99
2019-05-07T09:26:55.571Z,1015.02
2019-05-07T09:27:59.799Z,1015.02
2019-05-07T09:29:04.042Z,1015.07
2019-05-07T09:30:08.349Z,1015.09
2019-05-07T09:31:12.597Z,1015.12
2019-05-07T09:32:16.972Z,1015.09
2019-05-07T09:33:22.707Z,1015.10
2019-05-07T09:34:25.406Z,1015.10
2019-05-07T09:35:29.547Z,1015.07
2019-05-07T09:36:36.959Z,1015.07
2019-05-07T09:37:42.083Z,1015.04
2019-05-07T09:38:56.028Z,1015.11
2019-05-07T09:39:48.843Z,1015.06
2019-05-07T09:40:53.174Z,1015.05
2019-05-07T09:41:57.417Z,1015.04
2019-05-07T09:43:02.548Z,1015.05
2019-05-07T09:44:05.948Z,1015.05
2019-05-07T09:45:12.074Z,1015.03
2019-05-07T09:46:14.546Z,1015.04
2019-05-07T09:47:18.797Z,1015.02
2019-05-07T09:48:23.097Z,1014.96
2019-05-07T09:49:27.387Z,1014.97
2019-05-07T09:50:32.492Z,1014.96
2019-05-07T09:51:35.838Z,1015.00
2019-05-07T09:52:42.528Z,1015.01
2019-05-07T09:53:44.679Z,1015.01
2019-05-07T09:54:48.817Z,1015.02
2019-05-07T09:55:53.056Z,1014.98
2019-05-07T09:56:57.316Z,1015.03
2019-05-07T09:58:02.020Z,1015.06
2019-05-07T09:59:05.986Z,1015.04
2019-05-07T10:00:12.142Z,1015.08
2019-05-07T10:01:14.442Z,1015.06
2019-05-07T10:02:18.727Z,1015.05
2019-05-07T10:03:22.976Z,1015.03
2019-05-07T10:04:27.150Z,1015.02
2019-05-07T10:05:32.147Z,1015.04
2019-05-07T10:06:35.756Z,1015.05
2019-05-07T10:07:42.210Z,1015.04
2019-05-07T10:08:44.258Z,1015.01
2019-05-07T10:09:48.570Z,1014.99
2019-05-07T10:10:53.270Z,1014.96
2019-05-07T10:11:57.175Z,1014.96
2019-05-07T10:13:01.880Z,1014.90
2019-05-07T10:14:05.760Z,1014.92
2019-05-07T10:15:12.061Z,1014.89
2019-05-07T10:16:14.464Z,1014.87
2019-05-07T10:17:18.769Z,1014.89
2019-05-07T10:18:23.061Z,1014.85
2019-05-07T10:19:27.274Z,1014.88
2019-05-07T10:20:32.727Z,1014.84
2019-05-07T10:21:35.866Z,1014.83
2019-05-07T10:22:42.696Z,1014.82
2019-05-07T10:23:44.567Z,1014.83
2019-05-07T10:24:48.921Z,1014.82
2019-05-07T10:25:53.216Z,1014.82
2019-05-07T10:26:57.487Z,1014.81
2019-05-07T10:28:02.021Z,1014.79
2019-05-07T10:29:06.158Z,1014.82
2019-05-07T10:30:12.679Z,1014.82
2019-05-07T10:31:14.686Z,1014.85
2019-05-07T10:32:18.977Z,1014.84
2019-05-07T10:33:23.319Z,1014.75
2019-05-07T10:34:27.619Z,1014.75
2019-05-07T10:35:33.770Z,1014.74
2019-05-07T10:36:36.232Z,1014.75
2019-05-07T10:37:42.338Z,1014.80
2019-05-07T10:38:44.773Z,1014.76
2019-05-07T10:39:49.123Z,1014.77
2019-05-07T10:40:53.398Z,1014.80
2019-05-07T10:41:57.917Z,1014.80
2019-05-07T10:43:01.924Z,1014.82
2019-05-07T10:44:06.296Z,1014.80
2019-05-07T10:45:10.527Z,1014.84
2019-05-07T10:46:14.867Z,1014.82
2019-05-07T10:47:19.157Z,1014.81
2019-05-07T10:48:23.494Z,1014.81
2019-05-07T10:49:27.785Z,1014.78
2019-05-07T10:50:38.615Z,1014.78
2019-05-07T10:51:36.306Z,1014.78
2019-05-07T10:52:42.357Z,1014.78
2019-05-07T10:53:45.181Z,1014.78
2019-05-07T10:54:59.042Z,1014.73
2019-05-07T10:55:53.748Z,1014.78
2019-05-07T10:56:58.062Z,1014.79
2019-05-07T10:58:03.012Z,1014.80
2019-05-07T10:59:06.580Z,1014.80
2019-05-07T11:00:12.447Z,1014.79
2019-05-07T11:01:15.220Z,1014.77
2019-05-07T11:02:19.500Z,1014.76
2019-05-07T11:03:23.870Z,1014.74
2019-05-07T11:04:39.232Z,1014.74
2019-05-07T11:05:32.810Z,1014.71
2019-05-07T11:06:36.794Z,1014.74
2019-05-07T11:07:42.190Z,1014.75
2019-05-07T11:08:45.354Z,1014.70
2019-05-07T11:09:49.659Z,1014.74
2019-05-07T11:10:53.988Z,1014.72
2019-05-07T11:11:58.269Z,1014.66
2019-05-07T11:13:02.685Z,1014.68
2019-05-07T11:14:09.839Z,1014.66
2019-05-07T11:15:13.332Z,1014.63
2019-05-07T11:16:17.644Z,1014.65
2019-05-07T11:17:22.397Z,1014.64
2019-05-07T11:18:26.165Z,1014.62
2019-05-07T11:19:32.327Z,1014.68
2019-05-07T11:20:46.532Z,1014.67
2019-05-07T11:21:39.146Z,1014.69
2019-05-07T11:22:43.512Z,1014.65
2019-05-07T11:23:47.864Z,1014.65
2019-05-07T11:24:52.346Z,1014.60
2019-05-07T11:25:56.460Z,1014.62
2019-05-07T11:27:02.448Z,1014.63
2019-05-07T11:28:04.989Z,1014.59
2019-05-07T11:29:09.350Z,1014.58
2019-05-07T11:30:13.638Z,1014.59
2019-05-07T11:31:17.917Z,1014.50
2019-05-07T11:32:22.307Z,1014.53
2019-05-07T11:33:26.601Z,1014.46
2019-05-07T11:34:32.810Z,1014.42
2019-05-07T11:35:35.288Z,1014.44
2019-05-07T11:36:39.566Z,1014.39
2019-05-07T11:37:44.378Z,1014.38
2019-05-07T11:38:48.288Z,1014.39
2019-05-07T11:39:52.580Z,1014.42
2019-05-07T11:40:57.020Z,1014.43
2019-05-07T11:42:02.372Z,1014.43
2019-05-07T11:43:05.549Z,1014.41
2019-05-07T11:44:12.276Z,1014.43
2019-05-07T11:45:14.181Z,1014.42
2019-05-07T11:46:18.531Z,1014.46
2019-05-07T11:47:22.808Z,1014.51
2019-05-07T11:48:27.060Z,1014.54
2019-05-07T11:49:32.781Z,1014.53
2019-05-07T11:50:35.730Z,1014.57
2019-05-07T11:51:39.984Z,1014.57
2019-05-07T11:52:44.275Z,1014.57
2019-05-07T11:53:48.557Z,1014.59
2019-05-07T11:54:52.930Z,1014.62
2019-05-07T11:55:57.165Z,1014.62
2019-05-07T11:57:02.682Z,1014.63
2019-05-07T11:58:05.831Z,1014.63
2019-05-07T11:59:10.129Z,1014.63
2019-05-07T12:00:14.386Z,1014.64
2019-05-07T12:01:18.842Z,1014.59
2019-05-07T12:02:23.039Z,1014.59
2019-05-07T12:03:27.340Z,1014.60
2019-05-07T12:04:32.064Z,1014.60
2019-05-07T12:05:35.892Z,1014.58
2019-05-07T12:06:40.203Z,1014.61
2019-05-07T12:07:44.500Z,1014.65
2019-05-07T12:08:51.942Z,1014.69
2019-05-07T12:09:53.159Z,1014.73
2019-05-07T12:10:57.483Z,1014.74
2019-05-07T12:12:02.443Z,1014.73
2019-05-07T12:13:06.040Z,1014.74
2019-05-07T12:14:12.268Z,1014.71
2019-05-07T12:15:14.637Z,1014.73
2019-05-07T12:16:18.901Z,1014.69
2019-05-07T12:17:23.141Z,1014.68
2019-05-07T12:18:27.448Z,1014.71
2019-05-07T12:19:33.037Z,1014.68
2019-05-07T12:20:36.111Z,1014.68
2019-05-07T12:21:42.171Z,1014.61
2019-05-07T12:22:44.747Z,1014.61
2019-05-07T12:23:49.122Z,1014.61
2019-05-07T12:24:53.367Z,1014.60
2019-05-07T12:25:57.666Z,1014.62
2019-05-07T12:27:02.647Z,1014.56
2019-05-07T12:28:06.308Z,1014.57
2019-05-07T12:29:11.843Z,1014.58
2019-05-07T12:30:14.873Z,1014.53
2019-05-07T12:31:19.305Z,1014.52
2019-05-07T12:32:23.566Z,1014.52
2019-05-07T12:33:27.842Z,1014.53
2019-05-07T12:34:32.154Z,1014.53
2019-05-07T12:35:36.533Z,1014.50
2019-05-07T12:36:40.798Z,1014.49
2019-05-07T12:37:47.872Z,1014.47
2019-05-07T12:38:49.445Z,1014.34
2019-05-07T12:39:53.750Z,1014.45
2019-05-07T12:40:58.139Z,1014.47
2019-05-07T12:42:02.407Z,1014.48
2019-05-07T12:43:06.671Z,1014.42
2019-05-07T12:44:13.026Z,1014.50
2019-05-07T12:45:15.292Z,1014.47
2019-05-07T12:46:19.544Z,1014.47
2019-05-07T12:47:23.875Z,1014.49
2019-05-07T12:48:28.253Z,1014.45
2019-05-07T12:49:32.609Z,1014.46
2019-05-07T12:50:36.875Z,1014.46
2019-05-07T12:51:42.697Z,1014.46
2019-05-07T12:52:45.398Z,1014.45
2019-05-07T12:53:49.815Z,1014.44
2019-05-07T12:54:54.049Z,1014.40
2019-05-07T12:55:58.333Z,1014.39
2019-05-07T12:57:02.738Z,1014.35